Time;durP1;ratioP1;P1;durP2;ratioP2;P2;SDS_P1;SDS_P2;PMS_P1;PMS_P2;Temp;Humidity;BMP_temperature;BMP_pressure;BME280_temperature;BME280_humidity;BME280_pressure;Samples;Min_cycle;Max_cycle;Signal;HPM_P1;HPM_P2
2022/09/05 00:02:28;;;;;;;4.38;3.45;;;;;;;15.01;100.00;97060.13;5075300;28;20040;-63
2022/09/05 00:05:24;;;;;;;5.05;3.10;;;;;;;15.04;100.00;97051.09;5070813;28;20097;-63
2022/09/05 00:08:11;;;;;;;7.65;3.47;;;;;;;15.21;100.00;97057.84;5065721;28;20040;-63
2022/09/05 00:10:43;;;;;;;4.80;3.20;;;;;;;15.32;100.00;97063.41;5063579;28;20497;-64
2022/09/05 00:13:21;;;;;;;9.30;3.15;;;;;;;15.38;100.00;97061.06;5050387;28;20043;-63
2022/09/05 00:16:08;;;;;;;6.90;3.25;;;;;;;15.41;100.00;97058.31;5054907;28;20052;-63
2022/09/05 00:18:41;;;;;;;5.55;2.88;;;;;;;15.39;100.00;97057.13;5068003;28;20123;-62
2022/09/05 00:21:28;;;;;;;6.82;3.45;;;;;;;15.37;100.00;97060.25;5061028;28;20055;-62
2022/09/05 00:24:17;;;;;;;5.20;3.08;;;;;;;15.39;100.00;97054.34;5065475;28;20041;-63
2022/09/05 00:27:08;;;;;;;6.28;2.97;;;;;;;15.53;100.00;97059.91;5067319;28;20093;-62
2022/09/05 00:29:48;;;;;;;4.55;3.03;;;;;;;15.50;100.00;97057.94;5066014;28;20064;-62
2022/09/05 00:32:31;;;;;;;6.28;3.30;;;;;;;15.45;100.00;97069.38;5056114;28;20414;-62
2022/09/05 00:35:15;;;;;;;5.25;2.83;;;;;;;15.37;100.00;97073.28;5067182;28;20051;-61
2022/09/05 00:37:44;;;;;;;5.30;2.70;;;;;;;15.26;100.00;97076.00;5063265;28;20040;-62
2022/09/05 00:40:25;;;;;;;8.43;2.50;;;;;;;15.13;100.00;97072.00;5058320;28;20482;-63
2022/09/05 00:42:57;;;;;;;5.22;2.60;;;;;;;15.15;100.00;97075.19;5062834;28;20113;-61
2022/09/05 00:45:31;;;;;;;5.82;2.40;;;;;;;15.16;100.00;97085.81;5057329;28;20223;-62
2022/09/05 00:48:15;;;;;;;6.78;3.00;;;;;;;14.91;100.00;97077.44;5055965;28;20051;-62
2022/09/05 00:51:02;;;;;;;6.43;3.30;;;;;;;14.27;100.00;97083.25;5059570;28;20046;-62
2022/09/05 00:53:42;;;;;;;6.70;3.85;;;;;;;14.17;100.00;97086.72;5062350;28;20037;-63
2022/09/05 00:56:26;;;;;;;6.47;3.40;;;;;;;14.34;100.00;97084.09;5057358;28;20040;-62
2022/09/05 00:59:02;;;;;;;5.30;3.40;;;;;;;14.48;100.00;97091.69;5059061;28;20068;-61
2022/09/05 01:01:40;;;;;;;5.80;3.10;;;;;;;14.53;100.00;97085.84;5062330;28;20183;-62
2022/09/05 01:04:21;;;;;;;9.10;3.25;;;;;;;14.76;100.00;97078.50;5058171;28;20497;-62
2022/09/05 01:07:25;;;;;;;7.22;3.33;;;;;;;14.95;100.00;97071.94;5063568;28;20046;-62
2022/09/05 01:09:55;;;;;;;11.52;3.08;;;;;;;15.04;100.00;97075.91;5019197;28;20037;-63
2022/09/05 01:12:30;;;;;;;;;;;;;;;15.13;100.00;97083.06;5071219;28;20047;-62
2022/09/05 01:15:04;;;;;;;5.40;2.95;;;;;;;15.19;100.00;97081.50;5075177;28;19916;-62
2022/09/05 01:17:33;;;;;;;5.28;3.20;;;;;;;14.97;100.00;97083.38;5062857;28;20064;-62
2022/09/05 01:20:48;;;;;;;5.82;3.15;;;;;;;15.14;100.00;97071.59;5066417;28;20740;-63
2022/09/05 01:23:37;;;;;;;5.90;3.50;;;;;;;15.24;100.00;97073.63;5030527;28;20044;-63
2022/09/05 01:26:21;;;;;;;4.57;3.25;;;;;;;14.52;100.00;97064.94;5087918;28;20388;-62
2022/09/05 01:29:18;;;;;;;6.75;4.07;;;;;;;13.73;100.00;97061.53;5102413;28;20100;-64
2022/09/05 01:32:07;;;;;;;11.32;4.10;;;;;;;13.86;100.00;97058.53;5093224;28;20047;-63
2022/09/05 01:34:49;;;;;;;6.10;4.05;;;;;;;14.21;100.00;97057.25;5070092;28;20477;-64
2022/09/05 01:37:21;;;;;;;7.32;3.92;;;;;;;14.41;100.00;97061.31;5075068;28;20043;-63
2022/09/05 01:40:12;;;;;;;4.78;3.63;;;;;;;14.63;100.00;97054.00;5089961;28;20051;-63
2022/09/05 01:43:11;;;;;;;5.50;3.42;;;;;;;14.86;100.00;97052.97;5078544;28;20500;-64
2022/09/05 01:45:49;;;;;;;5.53;3.08;;;;;;;14.95;100.00;97060.91;5079923;28;20050;-64
2022/09/05 01:48:55;;;;;;;5.25;3.40;;;;;;;14.91;100.00;97058.13;5072540;28;20386;-64
2022/09/05 01:51:48;;;;;;;8.48;2.95;;;;;;;14.88;100.00;97058.88;5083941;28;20035;-63
2022/09/05 01:54:32;;;;;;;5.75;2.88;;;;;;;14.85;100.00;97057.69;5079065;28;20036;-64
2022/09/05 01:57:22;;;;;;;9.13;3.22;;;;;;;14.90;100.00;97060.06;5084109;28;20123;-64
2022/09/05 01:59:55;;;;;;;8.43;3.20;;;;;;;14.90;100.00;97051.00;5099899;28;20047;-64
2022/09/05 02:02:58;;;;;;;5.05;3.17;;;;;;;14.91;100.00;97058.91;5070135;28;20040;-63
2022/09/05 02:05:30;;;;;;;3.47;2.53;;;;;;;14.98;100.00;97057.34;5059182;28;20051;-63
2022/09/05 02:08:27;;;;;;;7.95;3.72;;;;;;;14.94;100.00;97062.84;5063901;28;20055;-63
2022/09/05 02:11:07;;;;;;;3.58;2.83;;;;;;;14.90;100.00;97067.56;5055118;28;20039;-63
2022/09/05 02:13:32;;;;;;;;;;;;;;;14.94;100.00;97068.34;5092556;28;20047;-64
2022/09/05 02:16:10;;;;;;;5.53;2.83;;;;;;;14.88;100.00;97072.69;5085332;28;19916;-63
2022/09/05 02:18:35;;;;;;;5.13;3.25;;;;;;;14.82;100.00;97069.50;5081289;28;20384;-64
2022/09/05 02:21:07;;;;;;;7.43;3.00;;;;;;;14.77;100.00;97063.56;5096405;28;20173;-63
2022/09/05 02:23:40;;;;;;;4.85;2.90;;;;;;;14.77;100.00;97063.56;5085798;28;20036;-64
2022/09/05 02:26:15;;;;;;;6.13;3.15;;;;;;;14.81;100.00;97050.56;5092423;28;20067;-64
2022/09/05 02:29:06;;;;;;;9.27;3.30;;;;;;;14.73;100.00;97058.03;5098168;28;20043;-64
2022/09/05 02:31:42;;;;;;;6.38;3.20;;;;;;;14.65;100.00;97051.66;5098018;28;20032;-64
2022/09/05 02:34:30;;;;;;;5.13;3.28;;;;;;;14.70;100.00;97050.50;5089947;28;20086;-62
2022/09/05 02:37:17;;;;;;;5.47;3.22;;;;;;;14.71;100.00;97055.66;5103532;28;20067;-64
2022/09/05 02:39:58;;;;;;;7.85;3.55;;;;;;;14.67;100.00;97043.00;5089650;28;20059;-64
2022/09/05 02:42:47;;;;;;;6.45;3.25;;;;;;;14.63;100.00;97051.25;5057557;28;20249;-65
2022/09/05 02:46:03;;;;;;;5.10;3.05;;;;;;;14.54;100.00;97053.53;5057534;28;20123;-64
2022/09/05 02:48:58;;;;;;;5.65;2.90;;;;;;;14.51;100.00;97060.63;5052802;28;20113;-64
2022/09/05 02:51:33;;;;;;;5.13;3.03;;;;;;;14.49;100.00;97051.13;5038994;28;20045;-65
2022/09/05 02:54:07;;;;;;;7.75;3.70;;;;;;;14.47;100.00;97048.75;5076027;28;20067;-64
2022/09/05 02:57:15;;;;;;;3.95;3.15;;;;;;;14.51;100.00;97051.53;5082012;28;20105;-65
2022/09/05 03:00:06;;;;;;;6.85;3.33;;;;;;;14.44;100.00;97049.56;5091949;28;20040;-64
2022/09/05 03:02:47;;;;;;;5.50;3.45;;;;;;;14.41;100.00;97046.78;5082244;28;20451;-64
2022/09/05 03:05:25;;;;;;;4.88;3.17;;;;;;;14.42;100.00;97048.34;5079012;28;20437;-64
2022/09/05 03:08:23;;;;;;;6.80;3.30;;;;;;;14.39;100.00;97040.84;5099350;28;20052;-63
2022/09/05 03:11:11;;;;;;;6.10;3.30;;;;;;;14.39;100.00;97040.84;5102571;28;20061;-63
2022/09/05 03:14:07;;;;;;;5.32;3.20;;;;;;;14.38;100.00;97036.50;5086487;28;20054;-64
2022/09/05 03:17:02;;;;;;;7.10;3.58;;;;;;;14.29;100.00;97036.84;5079741;28;20052;-64
2022/09/05 03:20:07;;;;;;;8.98;3.45;;;;;;;14.30;100.00;97030.16;5082510;28;20046;-64
2022/09/05 03:22:55;;;;;;;7.70;3.83;;;;;;;14.22;100.00;97040.31;5078769;28;20038;-64
2022/09/05 03:25:54;;;;;;;5.57;3.20;;;;;;;14.23;100.00;97039.16;5084012;27;20060;-64
2022/09/05 03:28:32;;;;;;;3.80;3.20;;;;;;;14.13;100.00;97040.66;5071159;28;20611;-63
2022/09/05 03:31:07;;;;;;;6.28;3.22;;;;;;;14.02;100.00;97055.50;5101428;28;20047;-64
2022/09/05 03:34:14;;;;;;;10.10;3.42;;;;;;;14.08;100.00;97038.28;5101627;28;20069;-62
2022/09/05 03:36:42;;;;;;;7.80;3.30;;;;;;;14.06;100.00;97037.88;5101739;28;20457;-63
2022/09/05 03:39:44;;;;;;;7.20;3.30;;;;;;;14.03;100.00;97046.09;5095581;28;20122;-62
2022/09/05 03:42:24;;;;;;;4.70;3.45;;;;;;;14.03;100.00;97048.84;5095333;27;20131;-66
2022/09/05 03:45:09;;;;;;;5.47;3.80;;;;;;;13.91;100.00;97047.94;5097534;28;20047;-65
2022/09/05 03:48:13;;;;;;;6.18;4.05;;;;;;;13.45;100.00;97044.75;5080911;28;20032;-65
2022/09/05 03:50:44;;;;;;;8.05;4.15;;;;;;;13.29;100.00;97047.69;5080589;28;20032;-65
2022/09/05 03:53:46;;;;;;;5.40;4.00;;;;;;;13.39;100.00;97041.53;5076667;28;20036;-63
2022/09/05 03:56:46;;;;;;;4.65;3.58;;;;;;;13.48;100.00;97042.03;5074590;28;20062;-63
2022/09/05 03:59:30;;;;;;;8.32;3.90;;;;;;;13.46;100.00;97041.63;5067600;28;20402;-64
2022/09/05 04:02:03;;;;;;;6.07;3.97;;;;;;;13.44;100.00;97052.22;5071777;28;20035;-64
2022/09/05 04:04:41;;;;;;;5.30;3.65;;;;;;;13.43;100.00;97049.84;5079175;28;20042;-64
2022/09/05 04:07:29;;;;;;;7.95;4.32;;;;;;;13.38;100.00;97049.00;5076885;28;20036;-63
2022/09/05 04:10:03;;;;;;;7.18;4.10;;;;;;;13.28;100.00;97044.16;5080300;28;20169;-64
2022/09/05 04:12:37;;;;;;;6.18;4.18;;;;;;;13.33;100.00;97046.59;5074373;28;20040;-64
2022/09/05 04:15:06;;;;;;;5.63;3.83;;;;;;;13.36;100.00;97045.03;5076949;28;20189;-62
2022/09/05 04:17:45;;;;;;;5.32;3.80;;;;;;;13.41;100.00;97052.97;5075146;28;20102;-64
2022/09/05 04:20:36;;;;;;;8.57;3.78;;;;;;;13.42;100.00;97051.03;5080051;28;20044;-63
2022/09/05 04:23:26;;;;;;;8.52;4.05;;;;;;;13.44;100.00;97046.72;5080113;28;20040;-62
2022/09/05 04:26:10;;;;;;;5.80;3.80;;;;;;;13.44;100.00;97040.44;5080933;28;20042;-63
2022/09/05 04:28:47;;;;;;;6.38;3.70;;;;;;;13.49;100.00;97053.84;5089118;28;20036;-64
2022/09/05 04:31:28;;;;;;;5.35;3.60;;;;;;;13.52;100.00;97055.81;5078434;28;20078;-65
2022/09/05 04:34:25;;;;;;;8.35;3.90;;;;;;;13.52;100.00;97067.66;5081812;28;20476;-64
2022/09/05 04:37:08;;;;;;;8.73;3.80;;;;;;;13.39;100.00;97067.09;5081820;28;20048;-64
2022/09/05 04:39:35;;;;;;;7.03;3.67;;;;;;;13.41;100.00;97060.44;5080238;28;20048;-64
2022/09/05 04:42:04;;;;;;;6.45;3.70;;;;;;;13.44;100.00;97070.69;5080488;28;20075;-66
2022/09/05 04:44:39;;;;;;;6.28;3.70;;;;;;;13.40;100.00;97067.91;5080648;28;20071;-65
2022/09/05 04:47:15;;;;;;;8.07;3.83;;;;;;;13.35;100.00;97076.47;5075704;28;20527;-65
2022/09/05 04:49:49;;;;;;;5.38;3.90;;;;;;;13.33;100.00;97071.34;5081187;28;20051;-64
2022/09/05 04:52:48;;;;;;;8.32;3.60;;;;;;;13.45;100.00;97073.06;5076099;28;20139;-64
2022/09/05 04:55:19;;;;;;;10.45;3.92;;;;;;;13.38;100.00;97073.78;5071227;28;20040;-64
2022/09/05 04:57:48;;;;;;;5.47;3.85;;;;;;;13.47;100.00;97073.47;5081394;28;20050;-64
2022/09/05 05:00:24;;;;;;;6.93;3.90;;;;;;;13.47;100.00;97081.75;5063930;28;20112;-64
2022/09/05 05:03:01;;;;;;;7.15;3.88;;;;;;;13.53;100.00;97085.72;5077570;28;20052;-64
2022/09/05 05:05:31;;;;;;;4.45;3.50;;;;;;;13.70;100.00;97089.03;5075518;28;20040;-64
2022/09/05 05:08:02;;;;;;;9.63;3.70;;;;;;;14.04;100.00;97091.72;5092816;28;20044;-64
2022/09/05 05:10:37;;;;;;;7.72;3.58;;;;;;;14.25;100.00;97100.19;5105607;28;20399;-64
2022/09/05 05:13:05;;;;;;;4.72;3.53;;;;;;;14.36;100.00;97099.47;5103636;28;20044;-61
2022/09/05 05:15:33;;;;;;;5.35;3.42;;;;;;;14.44;100.00;97101.91;5087535;27;20659;-63
2022/09/05 05:18:20;;;;;;;6.35;3.75;;;;;;;14.52;100.00;97109.03;5085514;28;20378;-64
2022/09/05 05:21:12;;;;;;;6.43;3.33;;;;;;;14.65;100.00;97111.53;5085102;28;20043;-65
2022/09/05 05:23:43;;;;;;;9.27;3.30;;;;;;;14.79;100.00;97110.84;5070033;28;20545;-63
2022/09/05 05:26:19;;;;;;;7.35;3.80;;;;;;;14.79;100.00;97111.63;5078619;28;20169;-64
2022/09/05 05:29:02;;;;;;;4.82;3.40;;;;;;;14.58;100.00;97119.75;5085123;28;20043;-65
2022/09/05 05:31:31;;;;;;;8.27;3.33;;;;;;;14.91;100.00;97118.78;5088985;27;20547;-67
2022/09/05 05:34:01;;;;;;;7.20;3.45;;;;;;;15.55;100.00;97120.25;5084869;28;20950;-65
2022/09/05 05:36:35;;;;;;;6.60;3.33;;;;;;;16.00;100.00;97126.31;5075132;28;20048;-64
2022/09/05 05:39:12;;;;;;;5.20;3.10;;;;;;;16.27;100.00;97125.97;5084814;28;20036;-66
2022/09/05 05:41:45;;;;;;;6.07;3.00;;;;;;;16.38;100.00;97132.28;5102616;28;20492;-66
2022/09/05 05:44:13;;;;;;;7.72;2.83;;;;;;;16.50;100.00;97134.66;5093282;28;20134;-66
2022/09/05 05:46:44;;;;;;;5.53;3.00;;;;;;;16.67;100.00;97135.03;5104328;27;20044;-66
2022/09/05 05:49:28;;;;;;;9.75;3.22;;;;;;;16.90;100.00;97148.50;5100614;27;20046;-65
2022/09/05 05:52:17;;;;;;;4.35;3.00;;;;;;;16.99;100.00;97146.88;5104763;27;20484;-65
2022/09/05 05:54:50;;;;;;;10.73;3.45;;;;;;;17.09;100.00;97150.84;5087680;28;20055;-71
2022/09/05 05:57:28;;;;;;;10.18;3.50;;;;;;;16.06;100.00;97146.84;5072045;28;20041;-66
2022/09/05 06:00:05;;;;;;;6.07;3.97;;;;;;;15.67;100.00;97147.53;5095586;28;20075;-66
2022/09/05 06:03:05;;;;;;;7.55;3.85;;;;;;;14.99;100.00;97149.97;5099359;28;20067;-66
2022/09/05 06:05:52;;;;;;;6.05;4.13;;;;;;;15.45;100.00;97150.19;5101607;28;20047;-66
2022/09/05 06:08:47;;;;;;;8.68;4.25;;;;;;;15.44;100.00;97156.09;5088086;28;20028;-65
2022/09/05 06:11:18;;;;;;;6.32;3.90;;;;;;;14.53;100.00;97160.25;5096513;28;20065;-64
2022/09/05 06:14:06;;;;;;;8.35;5.35;;;;;;;14.77;100.00;97160.84;5100825;28;20059;-65
2022/09/05 06:16:58;;;;;;;9.15;4.35;;;;;;;15.56;100.00;97160.50;5082664;28;20044;-66
2022/09/05 06:19:41;;;;;;;8.75;3.80;;;;;;;15.79;100.00;97163.78;5088386;28;20105;-66
2022/09/05 06:22:32;;;;;;;11.15;4.20;;;;;;;15.74;100.00;97171.63;5096185;28;20519;-66
2022/09/05 06:25:42;;;;;;;9.88;3.67;;;;;;;16.36;100.00;97173.34;5102769;28;20047;-67
2022/09/05 06:28:15;;;;;;;6.28;3.60;;;;;;;16.87;100.00;97174.19;5064977;28;20046;-66
2022/09/05 06:31:09;;;;;;;9.23;3.65;;;;;;;16.99;100.00;97173.78;5105696;28;20088;-66
2022/09/05 06:33:53;;;;;;;5.82;3.42;;;;;;;18.22;100.00;97171.34;5103423;28;20043;-64
2022/09/05 06:36:30;;;;;;;5.30;2.83;;;;;;;20.02;100.00;97174.00;5094798;28;20067;-67
2022/09/05 06:39:11;;;;;;;9.20;2.80;;;;;;;21.22;100.00;97176.50;5102754;28;20063;-64
2022/09/05 06:41:52;;;;;;;4.72;2.60;;;;;;;21.62;98.76;97167.41;5101589;28;20039;-66
2022/09/05 06:44:52;;;;;;;5.60;3.17;;;;;;;22.11;94.98;97168.38;5092623;28;20673;-67
2022/09/05 06:47:20;;;;;;;5.38;2.33;;;;;;;23.32;88.21;97174.28;5068212;28;20040;-66
2022/09/05 06:50:04;;;;;;;11.05;2.75;;;;;;;22.97;91.35;97173.16;5098288;28;20040;-66
2022/09/05 06:52:54;;;;;;;8.43;2.67;;;;;;;22.47;93.58;97167.59;5081717;28;20535;-67
2022/09/05 06:55:41;;;;;;;6.30;3.05;;;;;;;20.93;100.00;97171.44;5076508;28;20052;-66
2022/09/05 06:59:08;;;;;;;7.40;2.92;;;;;;;23.71;87.13;97177.22;5077144;28;20419;-66
2022/09/05 07:01:44;;;;;;;7.43;2.80;;;;;;;24.54;80.19;97172.78;4958054;28;20051;-66
2022/09/05 07:04:32;;;;;;;15.13;3.70;;;;;;;24.01;82.53;97176.75;5043019;27;1502476;-65
2022/09/05 07:07:25;;;;;;;8.82;3.90;;;;;;;21.90;94.15;97185.56;5103446;28;20496;-65
2022/09/05 07:09:57;;;;;;;4.97;3.10;;;;;;;21.01;99.84;97183.22;5098846;28;20046;-65
2022/09/05 07:12:29;;;;;;;6.07;2.50;;;;;;;21.45;98.53;97175.69;5097074;28;20040;-65
2022/09/05 07:15:20;;;;;;;5.78;3.00;;;;;;;23.39;86.12;97182.47;5102866;28;20088;-65
2022/09/05 07:17:56;;;;;;;7.50;2.55;;;;;;;24.02;82.52;97181.13;5102023;28;20058;-65
2022/09/05 07:20:33;;;;;;;10.02;4.00;;;;;;;26.32;71.88;97184.56;5090131;27;20818;-64
2022/09/05 07:23:30;;;;;;;11.05;3.28;;;;;;;26.71;68.07;97189.91;5101721;28;20112;-65
2022/09/05 07:25:56;;;;;;;3.92;2.25;;;;;;;27.61;64.15;97191.81;5097363;28;20529;-66
2022/09/05 07:28:22;;;;;;;8.40;2.13;;;;;;;28.24;53.54;97195.00;5098204;27;20043;-66
2022/09/05 07:30:51;;;;;;;9.15;2.15;;;;;;;29.11;50.63;97197.31;5109617;27;20058;-66
2022/09/05 07:33:26;;;;;;;4.80;2.58;;;;;;;29.83;47.22;97202.16;5085830;28;20094;-64
2022/09/05 07:35:56;;;;;;;8.15;2.08;;;;;;;28.67;50.38;97209.91;5096905;28;20047;-66
2022/09/05 07:38:27;;;;;;;5.50;2.10;;;;;;;27.59;54.13;97208.38;5096908;28;20277;-67
2022/09/05 07:41:17;;;;;;;4.13;1.90;;;;;;;26.16;57.09;97207.25;5102551;28;20048;-66
2022/09/05 07:43:46;;;;;;;7.93;2.60;;;;;;;22.82;74.82;97204.25;5100855;28;20832;-66
2022/09/05 07:46:15;;;;;;;6.22;2.78;;;;;;;21.58;86.42;97198.16;5094901;28;20039;-66
2022/09/05 07:48:46;;;;;;;5.20;2.58;;;;;;;23.65;74.04;97205.72;5102966;28;20035;-65
2022/09/05 07:51:28;;;;;;;3.58;2.17;;;;;;;26.74;60.33;97200.25;5097991;28;20524;-64
2022/09/05 07:54:00;;;;;;;12.15;8.02;;;;;;;27.33;56.97;97207.88;5103705;28;20043;-66
2022/09/05 07:56:38;;;;;;;5.57;3.05;;;;;;;26.94;57.19;97205.44;5085608;28;20047;-66
2022/09/05 07:59:07;;;;;;;4.25;2.40;;;;;;;25.34;60.84;97208.97;5086488;28;20040;-65
2022/09/05 08:01:36;;;;;;;3.75;2.28;;;;;;;25.31;63.03;97207.06;5103194;28;20043;-66
2022/09/05 08:04:01;;;;;;;2.47;1.95;;;;;;;26.30;59.19;97220.75;5088504;28;20081;-66
2022/09/05 08:06:27;;;;;;;18.80;2.90;;;;;;;29.16;48.77;97214.38;5099658;28;20067;-66
2022/09/05 08:09:03;;;;;;;3.15;2.38;;;;;;;28.71;49.28;97213.34;5099392;28;20366;-65
2022/09/05 08:11:32;;;;;;;7.00;2.47;;;;;;;30.34;45.33;97214.38;5100728;28;20040;-65
2022/09/05 08:14:05;;;;;;;6.45;4.15;;;;;;;31.11;43.28;97215.31;5102243;28;20043;-65
2022/09/05 08:16:33;;;;;;;5.82;1.85;;;;;;;30.14;45.26;97206.56;5100721;27;20133;-66
2022/09/05 08:19:17;;;;;;;3.35;1.83;;;;;;;29.69;46.25;97206.47;5102146;28;20705;-65
2022/09/05 08:21:48;;;;;;;5.68;1.95;;;;;;;29.31;45.96;97216.47;5102113;27;20058;-65
2022/09/05 08:24:26;;;;;;;4.93;2.03;;;;;;;30.18;43.84;97209.94;5093776;28;20050;-66
2022/09/05 08:27:02;;;;;;;4.18;2.00;;;;;;;31.01;42.77;97215.47;5088326;28;20042;-66
2022/09/05 08:29:41;;;;;;;3.97;2.00;;;;;;;28.88;47.42;97221.41;5096774;28;20392;-64
2022/09/05 08:32:13;;;;;;;7.60;2.30;;;;;;;30.47;43.47;97220.50;5072342;28;20044;-65
2022/09/05 08:34:42;;;;;;;4.53;1.90;;;;;;;29.79;45.93;97219.28;5081838;28;20055;-66
2022/09/05 08:37:11;;;;;;;9.05;2.10;;;;;;;29.89;45.61;97215.13;5076682;28;20056;-65
2022/09/05 08:39:39;;;;;;;4.70;2.20;;;;;;;30.48;45.12;97211.53;5082969;28;20320;-65
2022/09/05 08:42:34;;;;;;;10.10;3.13;;;;;;;31.31;41.92;97221.00;5076923;28;20072;-65
2022/09/05 08:45:15;;;;;;;5.38;1.88;;;;;;;30.90;43.52;97209.63;5053866;28;20106;-67
2022/09/05 08:48:02;;;;;;;5.32;2.20;;;;;;;32.03;41.55;97215.94;5104409;28;20040;-66
2022/09/05 08:51:23;;;;;;;6.97;2.20;;;;;;;30.44;44.42;97218.66;5088448;28;20111;-65
2022/09/05 08:53:59;;;;;;;7.38;2.03;;;;;;;30.42;45.54;97215.53;5092320;28;20035;-65
2022/09/05 08:56:37;;;;;;;11.55;2.30;;;;;;;29.79;46.91;97212.84;5088586;28;20949;-64
2022/09/05 08:59:25;;;;;;;4.78;2.20;;;;;;;29.05;48.04;97211.28;5090684;28;20047;-64
2022/09/05 09:01:54;;;;;;;7.03;2.10;;;;;;;29.74;47.08;97212.25;5111019;28;20067;-65
2022/09/05 09:04:37;;;;;;;5.75;2.22;;;;;;;30.71;45.08;97209.06;5095485;28;20111;-65
2022/09/05 09:07:33;;;;;;;8.00;2.28;;;;;;;30.90;43.97;97203.97;5099509;28;20039;-65
2022/09/05 09:10:07;;;;;;;4.03;2.15;;;;;;;30.76;45.65;97207.59;5101939;28;20560;-65
2022/09/05 09:12:54;;;;;;;2.50;1.85;;;;;;;30.22;46.21;97202.84;5080652;28;20040;-65
2022/09/05 09:15:52;;;;;;;4.13;2.13;;;;;;;29.45;48.93;97198.03;5070692;28;20112;-65
2022/09/05 09:18:20;;;;;;;5.70;2.42;;;;;;;29.77;48.56;97201.28;5047726;28;20075;-65
2022/09/05 09:21:13;;;;;;;5.78;2.20;;;;;;;29.97;47.73;97201.38;5078599;28;20040;-66
2022/09/05 09:23:58;;;;;;;5.47;1.90;;;;;;;30.79;46.10;97207.41;5077734;28;20040;-65
2022/09/05 09:26:33;;;;;;;4.72;1.80;;;;;;;30.44;46.82;97208.13;5076453;28;20605;-65
2022/09/05 09:29:05;;;;;;;3.90;1.92;;;;;;;30.42;47.08;97202.19;5080072;28;20044;-66
2022/09/05 09:32:09;;;;;;;4.55;2.08;;;;;;;30.07;47.94;97194.38;5079161;28;20481;-66
2022/09/05 09:34:42;;;;;;;2.78;2.00;;;;;;;29.23;50.22;97189.91;5078579;28;20498;-65
2022/09/05 09:37:16;;;;;;;4.68;2.03;;;;;;;29.64;49.51;97193.81;5076230;28;20040;-65
2022/09/05 09:39:54;;;;;;;2.97;2.05;;;;;;;27.76;55.17;97189.91;5081688;28;20032;-66
2022/09/05 09:42:25;;;;;;;3.53;2.40;;;;;;;27.30;58.50;97195.53;5076757;28;20044;-65
2022/09/05 09:45:02;;;;;;;5.07;2.70;;;;;;;28.04;55.79;97203.97;5081677;28;20433;-65
2022/09/05 09:47:44;;;;;;;4.47;2.28;;;;;;;29.01;53.41;97190.97;5090075;28;20048;-64
2022/09/05 09:50:12;;;;;;;4.45;2.35;;;;;;;29.92;51.48;97185.88;5094924;28;20040;-65
2022/09/05 09:53:12;;;;;;;4.20;2.00;;;;;;;29.42;51.75;97194.13;5080537;28;20115;-65
2022/09/05 09:55:55;;;;;;;5.20;2.28;;;;;;;29.63;51.38;97194.28;5099703;28;20048;-65
2022/09/05 09:58:31;;;;;;;5.28;1.90;;;;;;;29.73;51.26;97190.91;5079653;28;20035;-64
2022/09/05 10:01:14;;;;;;;3.75;1.83;;;;;;;29.38;52.79;97189.94;5102349;28;20107;-65
2022/09/05 10:03:55;;;;;;;5.13;2.35;;;;;;;28.11;55.66;97183.94;5104893;28;20043;-65
2022/09/05 10:06:26;;;;;;;4.35;2.60;;;;;;;28.17;56.10;97184.84;5099967;28;20039;-65
2022/09/05 10:09:10;;;;;;;6.35;2.42;;;;;;;29.06;53.21;97187.47;5105259;28;20031;-68
2022/09/05 10:11:53;;;;;;;5.13;2.75;;;;;;;27.16;56.88;97179.25;5103875;28;20050;-67
2022/09/05 10:14:37;;;;;;;4.45;2.50;;;;;;;28.15;54.45;97184.56;5088142;28;20068;-65
2022/09/05 10:17:21;;;;;;;5.82;2.20;;;;;;;29.37;51.36;97183.53;5081299;28;20416;-66
2022/09/05 10:19:59;;;;;;;6.38;2.35;;;;;;;27.07;59.09;97183.59;5100585;27;20044;-67
2022/09/05 10:22:57;;;;;;;6.25;2.55;;;;;;;28.67;55.04;97172.50;5059703;28;20461;-66
2022/09/05 10:25:41;;;;;;;5.60;2.80;;;;;;;29.89;51.40;97171.97;5059089;28;20131;-66
2022/09/05 10:28:11;;;;;;;8.05;2.33;;;;;;;29.65;51.19;97167.13;5080193;28;20610;-66
2022/09/05 10:30:50;;;;;;;6.88;2.50;;;;;;;30.17;49.50;97180.16;5100639;28;20122;-66
2022/09/05 10:33:32;;;;;;;5.72;2.55;;;;;;;30.31;48.63;97171.66;5113266;27;20036;-66
2022/09/05 10:36:25;;;;;;;5.93;2.30;;;;;;;30.08;48.74;97162.03;5104372;27;20039;-66
2022/09/05 10:39:18;;;;;;;4.45;2.13;;;;;;;29.35;50.62;97155.00;5104493;28;20043;-66
2022/09/05 10:41:54;;;;;;;4.68;2.47;;;;;;;28.43;53.95;97170.38;5082887;28;20032;-66
2022/09/05 10:44:34;;;;;;;5.65;2.75;;;;;;;27.91;55.94;97170.38;5069108;28;20054;-64
2022/09/05 10:47:16;;;;;;;4.00;2.47;;;;;;;28.49;54.16;97167.72;5094807;28;20043;-65
2022/09/05 10:49:44;;;;;;;4.40;2.35;;;;;;;28.71;53.50;97156.19;5105186;28;20447;-65
2022/09/05 10:52:21;;;;;;;3.90;2.70;;;;;;;28.70;53.52;97157.44;5099042;27;20046;-66
2022/09/05 10:55:20;;;;;;;3.72;2.45;;;;;;;28.84;52.50;97153.16;5105491;27;20562;-67
2022/09/05 10:58:05;;;;;;;4.35;2.28;;;;;;;28.35;54.25;97147.41;5103130;28;20057;-65
2022/09/05 11:01:13;;;;;;;7.90;2.72;;;;;;;28.67;54.44;97147.16;5096331;28;20047;-65
2022/09/05 11:03:58;;;;;;;5.13;2.67;;;;;;;28.29;55.88;97151.34;5053157;28;20132;-65
2022/09/05 11:06:44;;;;;;;3.92;2.42;;;;;;;28.26;54.13;97144.63;5060629;28;20520;-66
2022/09/05 11:09:41;;;;;;;5.40;2.50;;;;;;;28.64;54.23;97139.63;5065863;28;20530;-65
2022/09/05 11:12:26;;;;;;;11.95;2.70;;;;;;;28.28;54.12;97142.13;5078304;28;20052;-66
2022/09/05 11:14:56;;;;;;;5.32;2.60;;;;;;;27.50;54.76;97140.88;5081886;28;20550;-66
2022/09/05 11:18:02;;;;;;;5.95;2.60;;;;;;;27.41;56.23;97147.28;5079270;28;21490;-66
2022/09/05 11:20:51;;;;;;;6.25;2.40;;;;;;;27.12;58.52;97134.44;5058131;28;20135;-66
2022/09/05 11:23:27;;;;;;;4.77;2.83;;;;;;;27.56;58.15;97133.34;5069306;28;20157;-66
2022/09/05 11:26:31;;;;;;;5.13;2.55;;;;;;;27.39;59.73;97138.53;5083015;28;20040;-66
2022/09/05 11:29:08;;;;;;;4.40;2.50;;;;;;;26.77;63.01;97129.06;5081251;28;20051;-66
2022/09/05 11:31:43;;;;;;;6.78;2.63;;;;;;;26.39;63.86;97127.34;5083474;28;20075;-66
2022/09/05 11:34:33;;;;;;;4.20;2.83;;;;;;;26.37;63.30;97129.06;5075934;28;20044;-65
2022/09/05 11:37:03;;;;;;;7.72;3.55;;;;;;;26.11;64.49;97118.84;5080703;28;20554;-65
2022/09/05 11:40:06;;;;;;;6.15;3.05;;;;;;;26.11;64.42;97116.03;5082117;28;20048;-65
2022/09/05 11:42:37;;;;;;;7.30;2.70;;;;;;;26.78;63.65;97108.16;5098586;28;20035;-66
2022/09/05 11:45:28;;;;;;;4.80;2.75;;;;;;;27.17;61.10;97102.88;5098530;28;20489;-64
2022/09/05 11:48:05;;;;;;;6.47;2.30;;;;;;;27.55;60.64;97093.19;5092241;28;20044;-66
2022/09/05 11:50:52;;;;;;;4.53;2.58;;;;;;;28.05;56.70;97086.50;5094474;28;20048;-65
2022/09/05 11:53:52;;;;;;;6.10;2.20;;;;;;;28.25;57.15;97085.97;5097432;28;20096;-66
2022/09/05 11:56:24;;;;;;;5.47;2.53;;;;;;;28.26;56.19;97084.72;5105060;28;20059;-66
2022/09/05 11:59:08;;;;;;;4.30;2.55;;;;;;;28.25;55.42;97078.28;5104889;28;20031;-66
2022/09/05 12:01:43;;;;;;;4.70;2.60;;;;;;;28.13;56.37;97082.88;5061905;28;20051;-66
2022/09/05 12:04:24;;;;;;;4.75;2.45;;;;;;;28.21;57.21;97078.44;5079267;28;20044;-65
2022/09/05 12:06:56;;;;;;;6.70;2.70;;;;;;;27.91;57.47;97085.94;5092844;28;20473;-67
2022/09/05 12:09:43;;;;;;;5.20;2.33;;;;;;;27.89;56.55;97079.94;5078483;28;23452;-66
2022/09/05 12:12:28;;;;;;;4.65;2.58;;;;;;;26.98;60.43;97070.38;5078028;28;20501;-66
2022/09/05 12:15:15;;;;;;;6.40;2.70;;;;;;;26.93;60.49;97079.44;5081841;28;20040;-67
2022/09/05 12:18:04;;;;;;;4.75;2.63;;;;;;;27.15;59.96;97088.50;5063495;28;20044;-67
2022/09/05 12:20:41;;;;;;;6.03;3.13;;;;;;;27.27;58.79;97089.63;5097989;28;20070;-65
2022/09/05 12:23:20;;;;;;;4.82;2.90;;;;;;;26.96;59.52;97081.31;5094407;28;20044;-66
2022/09/05 12:26:11;;;;;;;7.03;3.00;;;;;;;26.77;62.01;97077.69;5102470;28;20386;-67
2022/09/05 12:28:47;;;;;;;5.80;2.80;;;;;;;26.80;64.54;97083.16;5105028;28;20052;-68
2022/09/05 12:31:22;;;;;;;6.68;2.90;;;;;;;26.62;65.83;97080.34;5107272;28;20060;-65
2022/09/05 12:33:51;;;;;;;7.20;2.92;;;;;;;26.27;69.50;97083.31;5114762;28;20073;-65
2022/09/05 12:36:38;;;;;;;3.60;2.55;;;;;;;26.06;72.06;97077.31;5101460;28;20040;-65
2022/09/05 12:39:48;;;;;;;4.90;2.80;;;;;;;25.85;71.54;97073.31;5080958;28;20044;-65